Time;durP1;ratioP1;P1;durP2;ratioP2;P2;SDS_P1;SDS_P2;PMS_P1;PMS_P2;Temp;Humidity;BMP_temperature;BMP_pressure;BME280_temperature;BME280_humidity;BME280_pressure;Samples;Min_cycle;Max_cycle;Signal;HPM_P1;HPM_P2
2021/01/14 00:00:39;;;;;;;2.13;1.60;;;6.70;80.20;;;;;;5007140;28;20074;-77
2021/01/14 00:03:10;;;;;;;2.90;1.50;;;6.60;80.10;;;;;;5028430;28;20509;-76
2021/01/14 00:05:36;;;;;;;3.92;1.95;;;6.60;80.10;;;;;;5035320;28;20033;-79
2021/01/14 00:08:04;;;;;;;1.77;1.67;;;6.70;80.10;;;;;;5023164;28;20037;-79
2021/01/14 00:10:29;;;;;;;1.30;1.20;;;6.60;80.10;;;;;;5053625;28;20147;-79
2021/01/14 00:12:55;;;;;;;2.85;1.60;;;6.60;80.10;;;;;;5024298;28;20498;-78
2021/01/14 00:15:21;;;;;;;2.97;1.58;;;6.60;80.10;;;;;;5054772;28;20028;-79
2021/01/14 00:17:48;;;;;;;2.88;1.60;;;6.60;80.10;;;;;;5014742;28;20037;-78
2021/01/14 00:20:16;;;;;;;1.63;1.40;;;6.60;80.10;;;;;;5037737;28;20020;-78
2021/01/14 00:22:43;;;;;;;1.50;1.38;;;6.60;80.10;;;;;;5054549;28;20473;-79
2021/01/14 00:25:10;;;;;;;1.55;1.30;;;6.60;80.10;;;;;;4993422;28;20441;-78
2021/01/14 00:27:36;;;;;;;2.42;1.40;;;6.50;80.00;;;;;;4996558;28;20041;-79
2021/01/14 00:30:09;;;;;;;1.40;1.30;;;6.60;80.70;;;;;;4984949;28;20087;-78
2021/01/14 00:32:35;;;;;;;2.75;1.40;;;6.50;80.10;;;;;;5003678;28;20068;-79
2021/01/14 00:35:01;;;;;;;1.92;1.42;;;6.50;80.10;;;;;;4965895;28;20030;-79
2021/01/14 00:40:11;;;;;;;1.88;1.30;;;6.50;80.10;;;;;;4986829;28;20038;-78
2021/01/14 00:42:37;;;;;;;2.22;1.38;;;6.50;80.10;;;;;;4993287;28;20026;-80
2021/01/14 00:45:04;;;;;;;1.75;1.40;;;6.50;80.10;;;;;;5017073;28;20367;-79
2021/01/14 00:47:37;;;;;;;2.05;1.55;;;6.50;80.10;;;;;;4999446;28;20524;-80
2021/01/14 00:50:04;;;;;;;1.52;1.42;;;6.40;80.10;;;;;;5014119;28;20073;-78
2021/01/14 00:52:30;;;;;;;1.40;1.30;;;6.40;80.10;;;;;;4998923;28;20029;-78
2021/01/14 00:54:56;;;;;;;1.35;1.25;;;6.40;80.10;;;;;;5037202;28;20055;-80
2021/01/14 00:57:21;;;;;;;1.42;1.30;;;6.40;80.20;;;;;;4970967;28;20071;-79
2021/01/14 00:59:47;;;;;;;1.95;1.38;;;6.40;80.20;;;;;;5009650;28;20034;-78
2021/01/14 01:02:13;;;;;;;1.40;1.27;;;6.40;80.20;;;;;;5008083;28;20021;-80
2021/01/14 01:04:42;;;;;;;2.67;1.50;;;6.40;80.20;;;;;;5009718;28;20430;-79
2021/01/14 01:07:08;;;;;;;1.58;1.38;;;6.40;80.20;;;;;;5002866;28;20037;-79
2021/01/14 01:09:34;;;;;;;2.55;1.25;;;6.40;80.20;;;;;;4998241;28;20041;-79
2021/01/14 01:11:59;;;;;;;2.83;1.67;;;6.30;80.10;;;;;;4977781;28;20022;-78
2021/01/14 01:14:25;;;;;;;1.30;1.20;;;6.30;80.10;;;;;;4993491;28;20037;-79
2021/01/14 01:16:56;;;;;;;1.60;1.50;;;6.30;80.80;;;;;;5014413;28;20151;-79
2021/01/14 01:19:22;;;;;;;1.80;1.50;;;6.30;80.20;;;;;;5010986;28;20037;-78
2021/01/14 01:21:47;;;;;;;2.42;1.17;;;6.30;80.20;;;;;;5030716;28;20025;-78
2021/01/14 01:24:13;;;;;;;2.03;1.40;;;6.30;80.20;;;;;;5000300;28;20026;-78
2021/01/14 01:26:39;;;;;;;2.17;1.50;;;6.30;80.20;;;;;;5015915;28;20486;-78
2021/01/14 01:29:05;;;;;;;2.42;1.50;;;6.30;80.20;;;;;;5000375;28;20029;-78
2021/01/14 01:31:31;;;;;;;1.60;1.30;;;6.30;80.20;;;;;;5014603;28;20032;-79
2021/01/14 01:33:57;;;;;;;1.80;1.70;;;6.20;80.20;;;;;;5006223;28;20030;-79
2021/01/14 01:36:23;;;;;;;2.42;1.50;;;6.20;80.20;;;;;;5013757;28;20040;-79
2021/01/14 01:38:49;;;;;;;1.30;1.20;;;6.20;80.10;;;;;;5029573;28;20034;-78
2021/01/14 01:41:14;;;;;;;2.88;1.35;;;6.20;80.10;;;;;;5004838;28;20022;-79
2021/01/14 01:43:40;;;;;;;1.70;1.30;;;6.20;80.10;;;;;;5020053;28;20033;-79
2021/01/14 01:46:07;;;;;;;1.63;1.52;;;6.20;80.20;;;;;;5018605;28;20037;-78
2021/01/14 01:48:33;;;;;;;1.60;1.50;;;6.20;80.10;;;;;;5019601;28;20545;-78
2021/01/14 01:51:01;;;;;;;1.10;1.10;;;6.20;80.20;;;;;;5023709;28;20112;-79
2021/01/14 01:53:29;;;;;;;1.20;1.20;;;6.10;80.10;;;;;;5046445;28;20033;-78
2021/01/14 02:01:49;;;;;;;1.67;1.38;;;6.10;80.10;;;;;;5157461;23;20133;-79
2021/01/14 02:04:14;;;;;;;1.45;1.35;;;6.10;80.10;;;;;;4933701;28;20054;-79
2021/01/14 02:06:49;;;;;;;1.67;1.25;;;6.10;80.20;;;;;;4972603;28;20039;-78
2021/01/14 02:09:20;;;;;;;2.05;1.50;;;6.10;80.30;;;;;;4974728;28;20062;-78
2021/01/14 02:11:50;;;;;;;1.90;1.48;;;6.00;80.20;;;;;;4973431;28;20026;-78
2021/01/14 02:14:24;;;;;;;1.40;1.30;;;6.00;80.20;;;;;;4958277;28;20027;-78
2021/01/14 02:16:51;;;;;;;1.70;1.30;;;6.00;80.30;;;;;;4941535;28;20035;-77
2021/01/14 02:19:46;;;;;;;2.25;1.50;;;6.00;80.20;;;;;;4957364;28;20505;-78
2021/01/14 02:22:16;;;;;;;1.50;1.27;;;6.00;80.30;;;;;;4956749;28;20046;-78
2021/01/14 02:24:45;;;;;;;1.33;1.23;;;6.00;80.20;;;;;;4944693;28;20062;-78
2021/01/14 02:27:11;;;;;;;2.22;1.30;;;6.00;80.20;;;;;;4940161;28;20039;-78
2021/01/14 02:29:38;;;;;;;2.38;1.30;;;5.90;80.20;;;;;;4941494;28;20086;-78
2021/01/14 02:32:13;;;;;;;2.00;1.42;;;5.90;80.20;;;;;;4940859;28;20122;-78
2021/01/14 02:34:39;;;;;;;2.10;1.63;;;5.90;80.20;;;;;;4931651;28;20512;-78
2021/01/14 02:37:05;;;;;;;1.88;1.70;;;5.90;80.80;;;;;;4940982;28;20030;-78
2021/01/14 02:39:30;;;;;;;1.17;1.10;;;5.90;80.20;;;;;;4938352;29;20395;-77
2021/01/14 02:41:56;;;;;;;1.63;1.35;;;5.90;80.30;;;;;;4956037;28;20031;-78
2021/01/14 02:44:22;;;;;;;1.90;1.50;;;5.90;80.30;;;;;;4946325;29;20098;-78
2021/01/14 02:46:48;;;;;;;2.05;1.60;;;5.90;80.30;;;;;;4967390;28;20035;-78
2021/01/14 02:49:15;;;;;;;1.33;1.23;;;5.90;80.30;;;;;;4930568;28;20045;-78
2021/01/14 02:51:45;;;;;;;1.83;1.20;;;5.90;80.30;;;;;;4956254;28;21516;-78
2021/01/14 02:54:13;;;;;;;1.63;1.50;;;5.90;80.30;;;;;;4957067;28;20038;-78
2021/01/14 02:56:40;;;;;;;2.38;1.60;;;5.80;80.30;;;;;;4950525;28;20035;-78
2021/01/14 02:59:06;;;;;;;1.52;1.42;;;5.80;80.30;;;;;;4929219;28;20038;-78
2021/01/14 03:01:33;;;;;;;1.98;1.27;;;5.80;80.20;;;;;;4940178;28;20059;-78
2021/01/14 03:03:59;;;;;;;2.45;1.50;;;5.80;80.30;;;;;;4934201;29;20107;-78
2021/01/14 03:06:24;;;;;;;1.85;1.40;;;5.80;80.20;;;;;;4933461;29;20505;-78
2021/01/14 03:08:50;;;;;;;1.45;1.35;;;5.80;80.30;;;;;;4902406;29;20040;-77
2021/01/14 03:11:16;;;;;;;1.90;1.63;;;5.80;80.30;;;;;;4928349;29;20024;-77
2021/01/14 03:13:42;;;;;;;1.83;1.50;;;5.80;80.30;;;;;;4922372;29;20038;-77
2021/01/14 03:16:08;;;;;;;1.40;1.23;;;5.80;80.30;;;;;;4928887;29;20032;-78
2021/01/14 03:18:34;;;;;;;2.25;1.50;;;5.70;80.30;;;;;;4934363;29;20047;-77
2021/01/14 03:21:00;;;;;;;4.10;1.52;;;5.70;80.20;;;;;;4917309;29;20032;-77
2021/01/14 03:23:26;;;;;;;1.60;1.50;;;5.70;80.30;;;;;;4928318;29;20116;-77
2021/01/14 03:25:52;;;;;;;1.42;1.33;;;5.70;80.30;;;;;;4905860;29;20043;-78
2021/01/14 03:28:17;;;;;;;1.50;1.20;;;5.70;80.30;;;;;;4894404;29;20028;-77
2021/01/14 03:30:43;;;;;;;1.30;1.20;;;5.70;80.30;;;;;;4918602;29;20087;-78
2021/01/14 03:33:09;;;;;;;1.48;1.23;;;5.70;80.30;;;;;;4928579;29;20024;-78
2021/01/14 03:35:35;;;;;;;2.13;1.50;;;5.70;80.30;;;;;;4930635;29;20626;-77
2021/01/14 03:38:00;;;;;;;1.50;1.40;;;5.70;80.30;;;;;;4929144;29;20028;-79
2021/01/14 03:40:26;;;;;;;1.20;1.10;;;5.70;80.30;;;;;;4890259;29;20043;-78
2021/01/14 03:42:52;;;;;;;1.55;1.45;;;5.60;80.20;;;;;;4917620;29;20712;-77
2021/01/14 03:45:17;;;;;;;1.90;1.50;;;5.70;80.30;;;;;;4931521;29;20031;-77
2021/01/14 03:47:43;;;;;;;1.20;1.10;;;5.60;80.20;;;;;;4902434;29;20515;-78
2021/01/14 03:50:09;;;;;;;1.20;1.10;;;5.60;80.30;;;;;;4901871;29;20410;-78
2021/01/14 03:52:35;;;;;;;1.63;1.27;;;5.60;80.30;;;;;;4934385;29;20062;-77
2021/01/14 03:55:01;;;;;;;1.98;1.40;;;5.60;80.20;;;;;;4918172;29;20059;-78
2021/01/14 03:57:27;;;;;;;1.20;1.10;;;5.60;80.30;;;;;;4918025;29;20039;-77
2021/01/14 03:59:53;;;;;;;1.50;1.40;;;5.60;80.30;;;;;;4932102;29;20075;-77
2021/01/14 04:02:18;;;;;;;2.60;1.40;;;5.60;80.30;;;;;;4906688;29;20098;-80
2021/01/14 04:04:44;;;;;;;2.08;1.90;;;5.60;80.30;;;;;;4913246;29;20035;-79
2021/01/14 04:07:12;;;;;;;1.45;1.20;;;5.60;80.30;;;;;;4933730;29;20435;-78
2021/01/14 04:09:39;;;;;;;2.45;1.42;;;5.50;80.20;;;;;;4933149;29;20036;-77
2021/01/14 04:12:05;;;;;;;1.40;1.30;;;5.50;80.20;;;;;;4921612;29;20039;-77
2021/01/14 04:14:31;;;;;;;2.22;2.03;;;5.50;80.20;;;;;;4930221;29;20036;-77
2021/01/14 04:16:57;;;;;;;1.63;1.52;;;5.50;80.30;;;;;;4930066;29;20039;-78
2021/01/14 04:19:23;;;;;;;1.40;1.30;;;5.50;80.90;;;;;;4886744;29;20032;-78
2021/01/14 04:21:48;;;;;;;1.58;1.48;;;5.50;80.30;;;;;;4914288;29;20552;-78
2021/01/14 04:24:14;;;;;;;1.23;1.20;;;5.50;80.30;;;;;;4916834;29;20032;-77
2021/01/14 04:26:41;;;;;;;1.67;1.40;;;5.50;80.30;;;;;;4918207;29;20074;-78
2021/01/14 04:29:07;;;;;;;1.30;1.20;;;5.50;80.30;;;;;;4917037;29;20035;-78
2021/01/14 04:31:34;;;;;;;1.58;1.48;;;5.40;80.20;;;;;;4940651;29;20086;-80
2021/01/14 04:34:01;;;;;;;1.42;1.33;;;5.40;80.20;;;;;;4932974;29;20400;-78
2021/01/14 04:36:27;;;;;;;1.35;1.25;;;5.40;80.20;;;;;;4931619;29;20396;-77
2021/01/14 04:38:53;;;;;;;1.38;1.30;;;5.40;80.20;;;;;;4933619;29;20032;-80
2021/01/14 04:41:20;;;;;;;1.95;1.50;;;5.40;80.20;;;;;;4949381;28;20112;-77
2021/01/14 04:43:47;;;;;;;1.25;1.25;;;5.40;80.20;;;;;;4941169;29;20083;-77
2021/01/14 04:46:14;;;;;;;1.50;1.40;;;5.40;80.20;;;;;;4934745;29;20042;-78
2021/01/14 04:48:41;;;;;;;1.50;1.40;;;5.40;80.20;;;;;;4923167;29;20040;-79
2021/01/14 04:51:11;;;;;;;1.58;1.48;;;5.40;80.20;;;;;;4917360;29;20028;-78
2021/01/14 04:53:42;;;;;;;1.50;1.40;;;5.30;80.20;;;;;;4910848;29;20119;-78
2021/01/14 04:56:10;;;;;;;1.48;1.23;;;5.30;80.20;;;;;;4929545;29;20051;-78
2021/01/14 04:58:38;;;;;;;1.50;1.40;;;5.30;80.20;;;;;;4917552;29;20028;-78
2021/01/14 05:01:09;;;;;;;1.40;1.30;;;5.30;80.20;;;;;;4937600;28;20044;-79
2021/01/14 05:03:39;;;;;;;1.50;1.40;;;5.30;80.20;;;;;;4926990;29;20444;-78
2021/01/14 05:06:06;;;;;;;1.45;1.33;;;5.30;80.20;;;;;;4917555;29;20051;-78
2021/01/14 05:08:33;;;;;;;1.40;1.30;;;5.30;80.20;;;;;;4920563;29;20042;-78
2021/01/14 05:11:00;;;;;;;1.30;1.20;;;5.30;80.20;;;;;;4920635;29;20488;-79
2021/01/14 05:13:30;;;;;;;2.05;1.33;;;5.30;80.20;;;;;;4936125;29;20468;-78
2021/01/14 05:15:57;;;;;;;2.08;1.45;;;5.20;80.20;;;;;;4937532;29;20043;-78
2021/01/14 05:18:23;;;;;;;1.60;1.50;;;5.20;80.20;;;;;;4901026;29;20025;-78
2021/01/14 05:20:49;;;;;;;1.73;1.48;;;5.20;80.20;;;;;;4905127;29;20039;-78
2021/01/14 05:23:20;;;;;;;1.77;1.60;;;5.20;80.20;;;;;;4904635;29;20027;-81
2021/01/14 05:25:53;;;;;;;1.63;1.50;;;5.20;80.20;;;;;;4920564;29;20067;-79
2021/01/14 05:28:21;;;;;;;1.50;1.40;;;5.20;80.20;;;;;;4935348;29;20476;-78
2021/01/14 05:30:47;;;;;;;1.45;1.20;;;5.20;80.20;;;;;;4920302;29;20030;-79
2021/01/14 05:33:17;;;;;;;2.00;1.50;;;5.20;80.20;;;;;;4940323;29;20027;-78
2021/01/14 05:35:49;;;;;;;1.75;1.65;;;5.10;80.10;;;;;;4939295;29;20039;-79
2021/01/14 05:38:29;;;;;;;1.40;1.38;;;5.10;80.10;;;;;;4928137;29;20023;-77
2021/01/14 05:41:19;;;;;;;1.70;1.60;;;5.10;80.20;;;;;;4952682;29;20047;-77
2021/01/14 05:43:56;;;;;;;1.50;1.38;;;5.10;80.10;;;;;;4935229;29;20151;-81
2021/01/14 05:46:25;;;;;;;1.45;1.35;;;5.10;80.10;;;;;;4948712;29;20123;-79
2021/01/14 05:48:56;;;;;;;2.45;1.40;;;5.10;80.10;;;;;;4943503;29;20475;-79
2021/01/14 05:51:23;;;;;;;1.45;1.30;;;5.10;80.20;;;;;;4924109;29;20027;-78
2021/01/14 05:54:09;;;;;;;1.40;1.30;;;5.10;80.20;;;;;;4928046;29;20040;-78
2021/01/14 05:56:40;;;;;;;1.52;1.42;;;5.00;80.20;;;;;;4915990;29;20032;-78
2021/01/14 05:59:14;;;;;;;1.75;1.45;;;5.00;80.10;;;;;;4940338;29;20032;-78
2021/01/14 06:01:58;;;;;;;2.88;1.55;;;5.00;80.10;;;;;;4922694;29;20510;-78
2021/01/14 06:04:26;;;;;;;1.25;1.10;;;5.00;80.20;;;;;;4930193;29;20023;-79
2021/01/14 06:06:53;;;;;;;1.58;1.40;;;5.00;80.10;;;;;;4929731;29;20040;-78
2021/01/14 06:09:21;;;;;;;1.40;1.30;;;5.00;80.10;;;;;;4919643;29;20103;-78
2021/01/14 06:11:49;;;;;;;1.75;1.63;;;5.00;80.20;;;;;;4926503;29;20380;-78
2021/01/14 06:14:31;;;;;;;1.52;1.33;;;5.00;80.20;;;;;;4928322;29;20123;-76
2021/01/14 06:16:59;;;;;;;1.67;1.50;;;5.00;80.30;;;;;;4934092;29;20035;-77
2021/01/14 06:19:26;;;;;;;3.45;1.55;;;5.00;80.20;;;;;;4911465;29;20042;-76
2021/01/14 06:21:58;;;;;;;1.55;1.45;;;4.90;80.10;;;;;;4918305;29;20392;-76
2021/01/14 06:24:29;;;;;;;1.50;1.20;;;5.00;80.20;;;;;;4932673;29;20032;-75
2021/01/14 06:27:05;;;;;;;2.15;1.30;;;4.90;80.20;;;;;;4932130;29;20039;-75
2021/01/14 06:29:35;;;;;;;1.10;1.10;;;4.90;80.20;;;;;;4927548;29;20055;-75
2021/01/14 06:32:10;;;;;;;1.50;1.30;;;4.90;80.10;;;;;;4934515;29;20032;-75
2021/01/14 06:34:38;;;;;;;1.33;1.23;;;4.90;80.20;;;;;;4930978;29;20036;-75
2021/01/14 06:37:12;;;;;;;1.63;1.30;;;4.90;80.20;;;;;;4923115;29;20028;-75
2021/01/14 06:39:58;;;;;;;1.67;1.42;;;4.90;80.20;;;;;;4922332;29;20067;-75
2021/01/14 06:42:27;;;;;;;1.60;1.50;;;4.90;80.30;;;;;;4916391;29;20103;-77
2021/01/14 06:45:01;;;;;;;1.42;1.35;;;4.90;80.20;;;;;;4932707;29;20028;-75
2021/01/14 06:47:41;;;;;;;1.45;1.35;;;4.90;80.20;;;;;;4916971;29;20033;-74
2021/01/14 06:50:16;;;;;;;1.40;1.30;;;4.90;80.20;;;;;;4915928;29;20472;-77
2021/01/14 06:52:50;;;;;;;1.65;1.55;;;4.90;80.20;;;;;;4935251;29;20047;-76
2021/01/14 06:55:17;;;;;;;1.60;1.50;;;4.80;80.80;;;;;;4929961;29;20416;-76
2021/01/14 06:58:09;;;;;;;1.67;1.50;;;4.90;80.20;;;;;;4900996;29;20036;-76
2021/01/14 07:00:43;;;;;;;1.83;1.30;;;4.80;80.30;;;;;;4919734;29;20051;-76
2021/01/14 07:03:24;;;;;;;1.85;1.75;;;4.80;80.20;;;;;;4944968;28;20159;-76
2021/01/14 07:05:55;;;;;;;1.70;1.35;;;4.80;80.20;;;;;;4973694;28;20125;-76
2021/01/14 07:08:21;;;;;;;1.70;1.60;;;4.80;80.20;;;;;;4941238;28;20035;-76
2021/01/14 07:11:03;;;;;;;1.40;1.30;;;4.80;80.20;;;;;;4963535;28;20053;-79
2021/01/14 07:13:51;;;;;;;1.27;1.10;;;4.80;80.30;;;;;;4950721;28;20030;-77
2021/01/14 07:16:25;;;;;;;1.85;1.50;;;4.80;80.30;;;;;;4948079;28;20125;-77
2021/01/14 07:18:52;;;;;;;1.60;1.50;;;4.80;80.20;;;;;;4950698;28;20506;-77
2021/01/14 07:21:26;;;;;;;2.58;1.52;;;4.80;80.20;;;;;;4954918;28;20034;-78
2021/01/14 07:24:21;;;;;;;1.67;1.42;;;4.80;80.30;;;;;;4959579;28;20035;-77
2021/01/14 07:26:58;;;;;;;1.60;1.50;;;4.80;80.30;;;;;;4953094;28;20042;-79
2021/01/14 07:29:28;;;;;;;1.60;1.50;;;4.80;80.20;;;;;;4946488;28;20045;-77
2021/01/14 07:31:58;;;;;;;1.30;1.27;;;4.70;80.20;;;;;;4951732;28;20031;-77
2021/01/14 07:34:40;;;;;;;1.65;1.55;;;4.70;80.80;;;;;;4972916;28;20035;-76
2021/01/14 07:37:07;;;;;;;1.70;1.60;;;4.70;80.30;;;;;;4943773;29;20024;-77
2021/01/14 07:39:45;;;;;;;1.50;1.40;;;4.70;80.20;;;;;;4955828;28;20019;-77
2021/01/14 07:42:23;;;;;;;1.77;1.67;;;4.70;80.30;;;;;;4956302;28;20027;-77
2021/01/14 07:45:15;;;;;;;1.48;1.38;;;4.70;80.30;;;;;;4960923;28;20023;-77
2021/01/14 07:47:41;;;;;;;1.80;1.70;;;4.70;80.40;;;;;;4955856;28;20039;-78
2021/01/14 07:50:27;;;;;;;2.55;1.77;;;4.80;80.20;;;;;;4924670;28;20446;-76
2021/01/14 07:52:54;;;;;;;1.63;1.52;;;4.70;80.40;;;;;;4940080;28;20034;-77
2021/01/14 07:55:31;;;;;;;1.90;1.40;;;4.70;80.20;;;;;;4940476;28;20368;-76
2021/01/14 07:58:23;;;;;;;1.50;1.40;;;4.70;80.30;;;;;;4955816;28;20061;-76
2021/01/14 08:01:08;;;;;;;1.40;1.30;;;4.70;80.30;;;;;;4973134;28;20165;-76
2021/01/14 08:03:37;;;;;;;1.50;1.40;;;4.70;80.40;;;;;;4906792;29;20491;-78
2021/01/14 08:06:44;;;;;;;1.50;1.40;;;4.70;80.30;;;;;;4951134;28;20483;-76
2021/01/14 08:09:10;;;;;;;1.52;1.42;;;4.70;80.40;;;;;;4955750;28;20137;-78
2021/01/14 08:11:43;;;;;;;2.55;1.60;;;4.70;80.20;;;;;;4953586;28;20034;-76
2021/01/14 08:14:34;;;;;;;1.70;1.30;;;4.60;80.30;;;;;;4951231;28;20027;-76
2021/01/14 08:17:01;;;;;;;1.73;1.30;;;4.60;80.30;;;;;;4972974;28;20041;-76
2021/01/14 08:19:32;;;;;;;1.60;1.50;;;4.60;80.20;;;;;;4956541;28;20038;-76
2021/01/14 08:21:58;;;;;;;1.30;1.27;;;4.60;80.30;;;;;;4955352;28;20459;-76
2021/01/14 08:24:46;;;;;;;1.60;1.50;;;4.60;80.30;;;;;;4939830;28;20031;-76
2021/01/14 08:27:15;;;;;;;1.73;1.63;;;4.60;80.40;;;;;;4958677;28;20483;-76
2021/01/14 08:30:13;;;;;;;1.60;1.50;;;4.60;80.30;;;;;;4951071;29;20030;-77
2021/01/14 08:32:39;;;;;;;1.77;1.35;;;4.60;80.40;;;;;;4956633;28;20047;-77
2021/01/14 08:35:26;;;;;;;1.70;1.40;;;4.60;80.20;;;;;;4976373;28;20037;-75
2021/01/14 08:38:07;;;;;;;1.60;1.50;;;4.60;80.40;;;;;;4943176;28;20117;-76
2021/01/14 08:40:35;;;;;;;2.22;1.45;;;4.60;80.40;;;;;;4953269;28;20035;-76
2021/01/14 08:43:14;;;;;;;2.08;1.55;;;4.60;80.30;;;;;;4958639;28;20034;-76
2021/01/14 08:45:48;;;;;;;1.63;1.52;;;4.60;80.40;;;;;;4958620;28;20042;-76
2021/01/14 08:48:23;;;;;;;2.13;1.70;;;4.60;80.40;;;;;;4943147;28;20123;-76
2021/01/14 08:50:50;;;;;;;1.55;1.45;;;4.60;80.40;;;;;;4970902;28;20038;-76
2021/01/14 08:53:19;;;;;;;1.50;1.40;;;4.60;80.30;;;;;;4939775;29;20024;-76
2021/01/14 08:55:56;;;;;;;1.85;1.65;;;4.60;80.40;;;;;;4951837;28;20372;-76
2021/01/14 08:58:47;;;;;;;1.60;1.50;;;4.60;80.40;;;;;;4957456;28;20053;-76
2021/01/14 09:01:23;;;;;;;2.50;1.60;;;4.60;80.40;;;;;;4941418;28;20051;-76
2021/01/14 09:03:52;;;;;;;2.10;1.85;;;4.60;80.40;;;;;;4965579;28;20062;-76
2021/01/14 09:06:38;;;;;;;1.50;1.40;;;4.60;80.30;;;;;;4955818;28;20038;-75
2021/01/14 09:09:15;;;;;;;2.00;1.77;;;4.60;80.50;;;;;;4949385;28;20502;-75
2021/01/14 09:11:41;;;;;;;1.60;1.50;;;4.60;80.40;;;;;;4954007;28;20023;-76
2021/01/14 09:14:15;;;;;;;1.50;1.40;;;4.60;80.40;;;;;;4939454;29;20027;-77
2021/01/14 09:16:46;;;;;;;1.63;1.52;;;4.60;80.40;;;;;;4941511;28;20050;-76
2021/01/14 09:19:27;;;;;;;3.15;1.83;;;4.60;80.40;;;;;;4960791;28;20113;-78
2021/01/14 09:21:53;;;;;;;1.85;1.70;;;4.60;80.50;;;;;;4975109;28;20031;-75
2021/01/14 09:24:19;;;;;;;1.80;1.67;;;4.60;80.40;;;;;;4967052;28;20081;-76
2021/01/14 09:26:52;;;;;;;2.20;1.40;;;4.60;80.40;;;;;;4957911;28;20062;-76
2021/01/14 09:29:20;;;;;;;1.70;1.42;;;4.60;80.50;;;;;;4975827;28;20066;-75
2021/01/14 09:31:46;;;;;;;1.92;1.70;;;4.60;80.40;;;;;;4975299;28;20027;-76
2021/01/14 09:34:12;;;;;;;2.13;1.63;;;4.60;80.40;;;;;;4974639;28;20038;-75
2021/01/14 09:36:38;;;;;;;2.13;1.65;;;4.60;81.00;;;;;;4941725;28;20041;-76
2021/01/14 09:39:06;;;;;;;1.90;1.73;;;4.60;80.40;;;;;;4940789;28;20055;-76
2021/01/14 09:41:36;;;;;;;1.92;1.60;;;4.60;80.40;;;;;;4940817;28;20498;-75
2021/01/14 09:44:03;;;;;;;2.05;1.50;;;4.60;80.40;;;;;;4955386;28;20118;-75
2021/01/14 09:46:36;;;;;;;3.22;1.65;;;4.60;80.40;;;;;;4944876;28;20558;-76
2021/01/14 09:49:05;;;;;;;2.70;1.73;;;4.70;80.50;;;;;;4957667;28;20106;-76
2021/01/14 09:51:35;;;;;;;1.50;1.40;;;4.70;80.40;;;;;;4957739;28;20475;-76
2021/01/14 09:54:03;;;;;;;1.70;1.60;;;4.70;80.40;;;;;;4975086;28;20034;-75
2021/01/14 09:56:32;;;;;;;2.00;1.70;;;4.70;80.40;;;;;;4974910;28;20042;-75
2021/01/14 09:59:02;;;;;;;2.65;1.50;;;4.70;80.40;;;;;;4975196;28;20031;-75
2021/01/14 10:01:37;;;;;;;1.60;1.50;;;4.70;80.50;;;;;;4957370;28;20483;-76
2021/01/14 10:04:13;;;;;;;2.03;1.83;;;4.70;80.50;;;;;;4945124;28;20027;-75
2021/01/14 10:06:45;;;;;;;2.75;1.75;;;4.70;80.40;;;;;;4975272;28;20031;-75
2021/01/14 10:09:11;;;;;;;2.30;1.80;;;4.70;80.40;;;;;;4971214;28;20027;-76
2021/01/14 10:11:37;;;;;;;1.90;1.80;;;4.70;80.40;;;;;;4924325;28;20031;-76
2021/01/14 10:14:05;;;;;;;2.75;1.90;;;4.70;80.40;;;;;;4940844;28;20027;-76
2021/01/14 10:16:31;;;;;;;2.25;1.85;;;4.70;80.40;;;;;;4943291;28;20173;-75
2021/01/14 10:19:11;;;;;;;2.92;1.63;;;4.70;80.40;;;;;;4953001;28;20114;-76
2021/01/14 10:21:38;;;;;;;2.60;2.20;;;4.70;80.50;;;;;;4944335;28;20091;-76
2021/01/14 10:24:17;;;;;;;1.58;1.48;;;4.80;80.40;;;;;;4973939;28;20094;-75
2021/01/14 10:26:42;;;;;;;2.38;1.60;;;4.70;80.40;;;;;;4960370;28;20042;-76
2021/01/14 10:29:08;;;;;;;2.85;2.03;;;4.70;80.40;;;;;;4925507;28;20461;-75
2021/01/14 10:31:38;;;;;;;2.25;1.73;;;4.80;80.50;;;;;;4947790;28;20039;-76
2021/01/14 10:34:07;;;;;;;1.98;1.88;;;4.80;80.50;;;;;;4956468;28;20083;-75
2021/01/14 10:36:47;;;;;;;1.90;1.70;;;4.80;80.50;;;;;;4940345;28;20034;-75
2021/01/14 10:39:13;;;;;;;2.03;1.60;;;4.70;80.50;;;;;;4973481;28;20037;-75
2021/01/14 10:41:40;;;;;;;2.45;1.77;;;4.80;80.40;;;;;;4947328;28;20105;-76
2021/01/14 10:44:07;;;;;;;2.30;1.60;;;4.70;80.40;;;;;;4943147;28;20110;-76
2021/01/14 10:46:33;;;;;;;1.90;1.77;;;4.80;80.50;;;;;;4938284;28;20062;-75
2021/01/14 10:49:13;;;;;;;3.17;2.00;;;4.80;80.50;;;;;;4954731;28;20035;-75
2021/01/14 10:51:40;;;;;;;2.10;1.88;;;4.80;80.60;;;;;;4959281;28;20074;-77
2021/01/14 10:54:07;;;;;;;3.05;1.92;;;4.80;80.50;;;;;;4962736;28;20038;-76
2021/01/14 10:56:50;;;;;;;2.80;1.98;;;4.80;80.50;;;;;;4973905;28;20066;-76
2021/01/14 10:59:24;;;;;;;1.92;1.77;;;4.80;80.50;;;;;;4947377;29;20027;-76
2021/01/14 11:02:06;;;;;;;2.72;1.80;;;4.80;80.50;;;;;;4940696;29;20055;-77
2021/01/14 11:04:32;;;;;;;2.20;1.83;;;4.80;80.50;;;;;;4953041;29;20035;-76
2021/01/14 11:06:58;;;;;;;2.83;2.20;;;4.80;80.40;;;;;;4953194;29;20031;-75
2021/01/14 11:09:24;;;;;;;2.08;1.92;;;4.80;80.40;;;;;;4953612;29;20114;-76
2021/01/14 11:11:50;;;;;;;1.92;1.80;;;4.80;80.50;;;;;;4939897;29;20391;-76
2021/01/14 11:14:17;;;;;;;2.38;1.92;;;4.80;80.50;;;;;;4937536;29;20067;-76
2021/01/14 11:16:43;;;;;;;3.15;2.00;;;4.80;80.50;;;;;;4953908;28;20027;-75
2021/01/14 11:19:10;;;;;;;3.17;1.90;;;4.80;80.50;;;;;;4936906;29;20061;-74
2021/01/14 11:21:37;;;;;;;2.38;1.80;;;4.80;80.50;;;;;;4954323;28;20023;-77
2021/01/14 11:24:04;;;;;;;2.30;1.98;;;4.90;80.50;;;;;;4945024;29;20415;-76
2021/01/14 11:26:30;;;;;;;2.53;2.10;;;4.80;80.50;;;;;;4953078;29;20047;-76
2021/01/14 11:28:56;;;;;;;2.60;1.73;;;4.80;80.50;;;;;;4937121;29;20110;-76
2021/01/14 11:31:23;;;;;;;2.13;1.67;;;4.90;80.60;;;;;;4933489;29;20054;-76
2021/01/14 11:33:50;;;;;;;2.38;2.17;;;4.90;80.50;;;;;;4947236;29;20034;-76
2021/01/14 11:36:20;;;;;;;3.28;1.80;;;4.90;80.60;;;;;;4924158;29;20046;-76
2021/01/14 11:38:46;;;;;;;1.85;1.70;;;4.90;80.60;;;;;;4953348;29;20086;-77
2021/01/14 11:41:17;;;;;;;2.67;1.95;;;4.90;80.50;;;;;;4952958;29;20024;-76
2021/01/14 11:43:42;;;;;;;2.30;2.05;;;4.90;80.60;;;;;;4937252;29;20035;-78
2021/01/14 11:46:08;;;;;;;3.03;2.08;;;4.90;80.50;;;;;;4936260;29;20062;-75
2021/01/14 11:48:34;;;;;;;2.40;2.10;;;4.90;80.50;;;;;;4936108;29;20058;-76
2021/01/14 11:50:59;;;;;;;2.38;2.17;;;4.90;80.50;;;;;;4930545;29;20110;-76
2021/01/14 11:53:25;;;;;;;2.20;2.00;;;4.90;80.50;;;;;;4937164;29;20035;-76
2021/01/14 11:55:51;;;;;;;3.08;2.10;;;4.90;80.60;;;;;;4920930;29;20032;-76
2021/01/14 11:58:17;;;;;;;2.35;1.92;;;4.90;80.50;;;;;;4953173;28;20019;-78
2021/01/14 12:00:46;;;;;;;2.75;1.90;;;4.90;80.50;;;;;;4934099;29;20094;-76
2021/01/14 12:03:12;;;;;;;2.28;2.08;;;4.90;80.50;;;;;;4908191;29;20028;-77
2021/01/14 12:05:37;;;;;;;2.75;2.45;;;4.90;80.40;;;;;;4924941;29;20043;-77
2021/01/14 12:08:03;;;;;;;2.80;2.05;;;4.90;80.50;;;;;;4918143;29;20130;-77
2021/01/14 12:10:29;;;;;;;2.60;1.88;;;4.90;80.50;;;;;;4921551;29;20028;-77
2021/01/14 12:12:55;;;;;;;2.67;1.90;;;4.90;80.50;;;;;;4937023;29;20110;-76
2021/01/14 12:15:21;;;;;;;2.25;1.85;;;4.90;80.50;;;;;;4924007;29;20040;-76
2021/01/14 12:17:47;;;;;;;2.65;2.22;;;4.90;80.50;;;;;;4921524;29;20083;-76
2021/01/14 12:20:13;;;;;;;3.05;2.40;;;4.90;80.40;;;;;;4917662;29;20032;-76
2021/01/14 12:22:39;;;;;;;3.03;2.63;;;5.00;80.50;;;;;;4928123;29;20400;-76
2021/01/14 12:25:09;;;;;;;3.13;2.55;;;5.00;80.50;;;;;;4918890;29;20032;-76
2021/01/14 12:27:36;;;;;;;3.92;2.35;;;5.00;80.50;;;;;;4936191;29;20480;-76
2021/01/14 12:30:04;;;;;;;2.60;2.20;;;5.00;80.50;;;;;;4901938;29;20385;-77
2021/01/14 12:32:29;;;;;;;4.75;2.13;;;5.00;80.50;;;;;;4923228;29;20035;-76
2021/01/14 12:34:55;;;;;;;2.63;2.05;;;5.00;80.50;;;;;;4928626;29;20036;-76
2021/01/14 12:37:21;;;;;;;3.08;2.20;;;5.00;80.50;;;;;;4932470;29;20047;-75
2021/01/14 12:39:47;;;;;;;2.78;2.30;;;5.00;80.50;;;;;;4914185;29;20040;-76
2021/01/14 12:42:13;;;;;;;2.22;2.03;;;5.00;80.50;;;;;;4931385;29;20044;-76
2021/01/14 12:44:39;;;;;;;3.33;2.30;;;5.00;80.50;;;;;;4937959;29;20055;-75
2021/01/14 12:47:05;;;;;;;2.78;2.20;;;5.00;80.50;;;;;;4920148;29;20143;-76
2021/01/14 12:49:30;;;;;;;2.50;2.30;;;5.00;80.50;;;;;;4920683;29;20055;-76
2021/01/14 12:51:57;;;;;;;3.72;2.20;;;5.00;80.50;;;;;;4936509;29;20528;-76
2021/01/14 12:54:23;;;;;;;2.40;1.92;;;5.00;81.10;;;;;;4935854;29;20424;-76
2021/01/14 12:56:51;;;;;;;2.45;2.17;;;5.10;80.50;;;;;;4936433;29;20507;-76
2021/01/14 12:59:17;;;;;;;3.45;2.08;;;5.00;80.40;;;;;;4937315;29;20020;-76
2021/01/14 13:01:42;;;;;;;3.20;2.38;;;5.10;80.50;;;;;;4935792;28;20056;-76
2021/01/14 13:04:15;;;;;;;3.17;2.28;;;5.10;80.50;;;;;;4937454;29;20031;-76
2021/01/14 13:06:41;;;;;;;3.20;2.42;;;5.10;80.50;;;;;;4923334;29;20067;-75
2021/01/14 13:09:09;;;;;;;2.92;2.50;;;5.10;80.50;;;;;;4916773;29;20448;-76
2021/01/14 13:11:37;;;;;;;3.35;2.40;;;5.10;80.50;;;;;;4928301;29;20066;-77
2021/01/14 13:14:04;;;;;;;2.65;2.10;;;5.10;80.50;;;;;;4936140;29;20027;-75
2021/01/14 13:16:37;;;;;;;3.15;2.20;;;5.10;80.40;;;;;;4912696;29;20059;-78
2021/01/14 13:19:06;;;;;;;3.78;2.30;;;5.10;80.50;;;;;;4936163;29;20106;-77